Terminal Aerodrome Forecast
Issued by NWS

Current Version | Previous Version | Graphics & Text | Print | Product List | Glossary On
Versions: 1 2 3 4 5 6 7 8 9 10 11 12 13 14 15 16 17 18 19
000
FTUS41 KILN 301700
TAFLUK
TAF
KLUK 301739Z 3018/3118 28010KT P6SM VCTS BKN050CB
     FM302100 28010KT P6SM SCT050
     FM310000 00000KT P6SM FEW050
     FM310700 00000KT 2SM BR SCT001 SCT050
      TEMPO 3109/3113 1/4SM FG VV001
     FM311300 00000KT 4SM BR FEW050
     FM311500 23006KT P6SM SCT040=

USA.gov is the U.S. government's official web portal to all federal, state and local government web resources and services.